Time;durP1;ratioP1;P1;durP2;ratioP2;P2;SDS_P1;SDS_P2;PMS_P1;PMS_P2;Temp;Humidity;BMP_temperature;BMP_pressure;BME280_temperature;BME280_humidity;BME280_pressure;Samples;Min_cycle;Max_cycle;Signal;HPM_P1;HPM_P2
2020/12/29 00:01:49;;;;;;;50.77;21.60;;;;;;;-0.01;92.82;100161.19;1774985;80;21264;-49
2020/12/29 00:04:20;;;;;;;49.30;22.00;;;;;;;-0.05;92.90;100164.83;1775084;80;21368;-49
2020/12/29 00:06:53;;;;;;;41.53;18.12;;;;;;;-0.06;92.99;100158.40;1760810;79;21019;-49
2020/12/29 00:09:23;;;;;;;45.08;20.52;;;;;;;-0.10;92.79;100158.97;1719630;83;21120;-49
2020/12/29 00:11:52;;;;;;;55.92;24.82;;;;;;;-0.13;92.87;100170.80;1719366;83;21133;-48
2020/12/29 00:14:20;;;;;;;48.02;22.48;;;;;;;-0.13;93.23;100141.35;1719551;82;22849;-48
2020/12/29 00:16:47;;;;;;;54.67;21.82;;;;;;;-0.12;93.44;100134.77;1719347;83;21161;-48
2020/12/29 00:19:22;;;;;;;57.17;26.30;;;;;;;-0.09;93.46;100141.62;1719521;83;22200;-49
2020/12/29 00:21:50;;;;;;;59.88;27.00;;;;;;;-0.09;93.50;100137.24;1718985;83;21121;-49
2020/12/29 00:24:17;;;;;;;47.17;19.20;;;;;;;-0.08;93.53;100131.59;1719624;83;21149;-49
2020/12/29 00:26:47;;;;;;;55.38;25.95;;;;;;;-0.09;93.59;100146.82;1716352;83;22179;-49
2020/12/29 00:29:14;;;;;;;56.45;25.25;;;;;;;-0.09;93.59;100147.66;1719235;83;21007;-48
2020/12/29 00:31:43;;;;;;;51.00;22.35;;;;;;;-0.07;93.63;100135.42;1719335;83;21150;-49
2020/12/29 00:34:10;;;;;;;54.83;23.92;;;;;;;-0.04;93.59;100132.69;1719397;83;21165;-49
2020/12/29 00:36:39;;;;;;;55.30;23.80;;;;;;;-0.04;93.46;100121.45;1748372;81;21164;-49
2020/12/29 00:39:07;;;;;;;58.00;23.75;;;;;;;-0.03;93.34;100127.05;1714405;83;22317;-49
2020/12/29 00:41:37;;;;;;;61.70;27.82;;;;;;;-0.08;93.06;100135.03;1733130;82;21154;-49
2020/12/29 00:44:05;;;;;;;63.80;28.12;;;;;;;-0.09;93.09;100124.70;1729856;82;22080;-48
2020/12/29 00:46:33;;;;;;;64.00;26.73;;;;;;;-0.10;93.14;100137.32;1729815;82;21141;-49
2020/12/29 00:49:01;;;;;;;52.62;22.17;;;;;;;-0.11;93.27;100145.56;1729706;82;21141;-48
2020/12/29 00:51:28;;;;;;;65.15;30.05;;;;;;;-0.08;93.37;100144.61;1729911;82;21208;-49
2020/12/29 00:53:58;;;;;;;59.83;26.75;;;;;;;-0.06;93.48;100142.79;1729639;82;21156;-48
2020/12/29 00:56:26;;;;;;;61.50;28.02;;;;;;;-0.03;93.54;100144.80;1725115;82;21179;-48
2020/12/29 00:58:55;;;;;;;56.95;24.92;;;;;;;-0.02;93.52;100129.57;1729676;82;21156;-48
2020/12/29 01:01:23;;;;;;;59.45;27.00;;;;;;;-0.01;93.47;100118.25;1730779;81;21925;-49
2020/12/29 01:04:07;;;;;;;60.78;25.65;;;;;;;0.04;93.38;100134.95;1874997;76;22479;-49
2020/12/29 01:06:35;;;;;;;60.12;26.42;;;;;;;0.01;93.34;100136.86;1845519;77;21026;-50
2020/12/29 01:09:05;;;;;;;62.73;27.32;;;;;;;0.03;93.30;100129.36;1845395;77;21174;-49
2020/12/29 01:11:34;;;;;;;58.68;25.50;;;;;;;0.05;93.35;100134.05;1845322;77;21620;-47
2020/12/29 01:14:03;;;;;;;62.03;26.55;;;;;;;0.07;93.31;100141.33;1845366;77;22487;-48
2020/12/29 01:16:33;;;;;;;58.20;24.57;;;;;;;0.07;93.19;100123.11;1775487;78;21519;-48
2020/12/29 01:19:00;;;;;;;64.62;28.07;;;;;;;0.06;93.20;100117.52;1783053;78;21215;-48
2020/12/29 01:21:28;;;;;;;64.58;26.37;;;;;;;0.08;93.24;100121.38;1775872;80;21905;-48
2020/12/29 01:23:56;;;;;;;64.90;27.90;;;;;;;0.09;93.19;100107.45;1742993;81;21018;-48
2020/12/29 01:26:24;;;;;;;62.60;27.07;;;;;;;0.08;93.15;100120.07;1775673;80;21064;-49
2020/12/29 01:28:53;;;;;;;64.30;27.73;;;;;;;0.11;93.09;100113.43;1780693;80;21138;-48
2020/12/29 01:31:31;;;;;;;64.50;24.37;;;;;;;0.11;92.92;100103.02;1780668;80;21510;-49
2020/12/29 01:33:59;;;;;;;57.10;25.08;;;;;;;0.10;92.71;100103.94;1780716;80;21373;-49
2020/12/29 01:36:27;;;;;;;65.87;28.30;;;;;;;0.06;92.67;100100.60;1765911;78;22006;-49
2020/12/29 01:38:55;;;;;;;68.50;30.23;;;;;;;0.04;92.80;100092.48;1816639;78;20971;-49
2020/12/29 01:41:23;;;;;;;69.58;28.65;;;;;;;0.03;93.02;100094.23;1787832;79;21121;-49
2020/12/29 01:43:51;;;;;;;59.00;25.85;;;;;;;0.08;93.12;100107.89;1787743;79;21149;-49
2020/12/29 01:46:18;;;;;;;65.50;25.45;;;;;;;0.11;93.13;100114.73;1816467;78;21187;-49
2020/12/29 01:48:46;;;;;;;56.08;24.10;;;;;;;0.14;93.15;100112.00;1815695;78;21014;-49
2020/12/29 01:51:14;;;;;;;58.50;25.75;;;;;;;0.18;93.16;100106.19;1822272;78;22108;-48
2020/12/29 01:53:41;;;;;;;56.35;24.87;;;;;;;0.22;93.07;100099.50;1806064;79;21966;-48
2020/12/29 01:56:10;;;;;;;55.38;23.55;;;;;;;0.22;92.92;100085.18;1822085;78;20935;-49
2020/12/29 01:58:39;;;;;;;48.83;22.15;;;;;;;0.20;92.83;100079.20;1806078;79;21364;-48
2020/12/29 02:01:08;;;;;;;49.85;19.30;;;;;;;0.14;92.84;100063.38;1811254;78;21145;-48
2020/12/29 02:03:36;;;;;;;61.18;27.62;;;;;;;0.09;92.95;100069.70;1763623;78;22133;-48
2020/12/29 02:06:04;;;;;;;57.45;23.12;;;;;;;0.06;93.10;100070.67;1794934;79;20952;-49
2020/12/29 02:08:32;;;;;;;62.85;25.88;;;;;;;0.06;93.21;100062.86;1795178;79;22286;-49
2020/12/29 02:11:00;;;;;;;61.18;26.25;;;;;;;0.05;93.26;100063.78;1794862;79;21200;-49
2020/12/29 02:13:27;;;;;;;52.03;21.62;;;;;;;0.05;93.27;100059.88;1794704;79;21012;-49
2020/12/29 02:15:55;;;;;;;65.20;26.65;;;;;;;0.02;93.11;100057.41;1794529;79;21635;-49
2020/12/29 02:18:24;;;;;;;70.28;24.90;;;;;;;-0.01;93.18;100049.77;1794321;79;21122;-50
2020/12/29 02:20:51;;;;;;;59.77;24.82;;;;;;;0.00;93.45;100061.86;1794720;79;21965;-49
2020/12/29 02:23:19;;;;;;;60.23;25.60;;;;;;;-0.04;93.25;100050.72;1794373;79;22139;-49
2020/12/29 02:25:47;;;;;;;55.05;25.57;;;;;;;-0.06;93.55;100037.41;1794193;79;21142;-49
2020/12/29 02:28:15;;;;;;;58.30;22.93;;;;;;;-0.03;93.77;100026.87;1794298;79;21157;-49
2020/12/29 02:30:43;;;;;;;45.28;19.12;;;;;;;0.00;93.74;100041.05;1794373;79;21679;-49
2020/12/29 02:33:11;;;;;;;57.13;25.50;;;;;;;0.01;93.69;100041.41;1794291;79;21000;-49
2020/12/29 02:35:38;;;;;;;58.08;25.88;;;;;;;0.01;93.68;100049.20;1794377;79;21262;-49
2020/12/29 02:38:06;;;;;;;48.55;22.32;;;;;;;0.04;93.68;100063.39;1794427;79;21004;-49
2020/12/29 02:40:35;;;;;;;48.55;24.43;;;;;;;0.07;93.60;100063.25;1794281;79;21004;-49
2020/12/29 02:43:03;;;;;;;51.48;22.50;;;;;;;0.09;93.51;100057.52;1794354;79;21119;-49
2020/12/29 02:45:31;;;;;;;50.38;20.45;;;;;;;0.10;93.31;100050.58;1794255;79;21162;-49
2020/12/29 02:48:00;;;;;;;51.18;21.17;;;;;;;0.05;93.02;100049.46;1794215;79;21922;-49
2020/12/29 02:50:31;;;;;;;46.80;23.95;;;;;;;0.03;92.91;100056.49;1794201;79;21051;-50
2020/12/29 02:52:59;;;;;;;49.27;22.37;;;;;;;-0.01;92.90;100059.70;1794423;79;21599;-48
2020/12/29 02:55:27;;;;;;;46.48;20.72;;;;;;;0.03;93.11;100055.66;1794411;79;21739;-48
2020/12/29 02:57:55;;;;;;;56.42;20.62;;;;;;;0.06;93.09;100040.74;1794442;79;21927;-48
2020/12/29 03:00:23;;;;;;;45.98;19.52;;;;;;;0.04;93.28;100030.03;1794267;79;22017;-49
2020/12/29 03:02:52;;;;;;;52.58;23.25;;;;;;;0.03;93.39;100030.94;1793447;79;22079;-49
2020/12/29 03:10:14;;;;;;;52.62;23.20;;;;;;;0.02;93.66;100020.14;1814189;78;20982;-49
2020/12/29 03:13:00;;;;;;;59.75;26.23;;;;;;;0.00;93.71;100016.33;1788377;79;21003;-49
2020/12/29 03:15:27;;;;;;;59.38;24.43;;;;;;;-0.03;93.82;100017.28;1787960;79;21422;-49
2020/12/29 03:17:55;;;;;;;50.78;23.67;;;;;;;-0.03;93.88;100030.30;1815074;78;22190;-49
2020/12/29 03:20:23;;;;;;;52.20;23.05;;;;;;;-0.02;93.90;100037.66;1766863;79;20999;-49
2020/12/29 03:22:50;;;;;;;55.85;24.72;;;;;;;-0.01;93.92;100033.68;1766576;80;21142;-49
2020/12/29 03:25:18;;;;;;;53.87;25.77;;;;;;;0.02;93.87;100026.17;1766726;80;21647;-49
2020/12/29 03:27:45;;;;;;;49.70;22.75;;;;;;;0.00;93.82;100029.34;1766629;80;21200;-49
2020/12/29 03:30:15;;;;;;;47.50;22.50;;;;;;;0.00;93.80;100033.23;1766554;80;20976;-49
2020/12/29 03:32:50;;;;;;;49.10;24.00;;;;;;;-0.01;93.77;100028.47;1757853;80;20956;-49
2020/12/29 03:35:18;;;;;;;47.85;22.45;;;;;;;-0.01;93.80;100025.05;1766823;80;21125;-48
2020/12/29 03:37:45;;;;;;;50.28;23.10;;;;;;;0.01;93.79;100017.16;1766903;80;21122;-49
2020/12/29 03:40:13;;;;;;;41.30;20.97;;;;;;;-0.03;93.56;100002.98;1766666;80;21259;-49
2020/12/29 03:42:41;;;;;;;47.83;23.22;;;;;;;-0.06;93.57;100003.58;1766682;80;20976;-49
2020/12/29 03:45:09;;;;;;;43.15;22.58;;;;;;;-0.06;93.62;100019.20;1766939;80;21963;-50
2020/12/29 03:47:37;;;;;;;40.75;21.12;;;;;;;-0.08;93.70;100006.23;1766709;80;21146;-49
2020/12/29 03:50:05;;;;;;;40.05;19.62;;;;;;;-0.05;93.92;100016.52;1766707;80;21140;-49
2020/12/29 03:52:32;;;;;;;44.40;19.57;;;;;;;-0.01;93.92;99987.31;1767060;80;22067;-49
2020/12/29 03:55:00;;;;;;;47.13;21.23;;;;;;;0.01;93.92;100003.67;1766942;80;22171;-49
2020/12/29 03:57:28;;;;;;;38.85;18.42;;;;;;;0.01;93.88;99994.56;1766906;80;21936;-49
2020/12/29 03:59:55;;;;;;;41.10;18.70;;;;;;;0.00;93.85;100004.61;1771585;79;20932;-49
2020/12/29 04:02:25;;;;;;;40.52;19.87;;;;;;;0.01;93.88;100014.08;1784435;79;20978;-49
2020/12/29 04:04:52;;;;;;;43.23;19.70;;;;;;;0.04;93.90;100013.11;1825676;78;21197;-49
2020/12/29 04:07:20;;;;;;;43.42;20.55;;;;;;;0.06;93.83;100013.42;1795420;79;21022;-48
2020/12/29 04:09:47;;;;;;;45.17;19.48;;;;;;;0.04;93.71;100020.45;1794871;79;20982;-50
2020/12/29 04:12:15;;;;;;;36.75;18.20;;;;;;;0.01;93.71;100015.38;1794674;79;20978;-49
2020/12/29 04:14:44;;;;;;;35.85;17.07;;;;;;;0.01;93.73;100002.38;1794813;79;21117;-49
2020/12/29 04:17:12;;;;;;;44.08;19.35;;;;;;;0.02;93.79;99998.02;1794836;79;22770;-49
2020/12/29 04:19:39;;;;;;;44.65;16.70;;;;;;;0.01;93.79;100003.67;1794600;79;21010;-49
2020/12/29 04:22:07;;;;;;;40.05;16.37;;;;;;;-0.01;93.75;100002.45;1794741;79;21128;-50
2020/12/29 04:24:35;;;;;;;44.08;19.25;;;;;;;-0.03;93.71;99981.33;1794778;79;21109;-49
2020/12/29 04:27:03;;;;;;;39.92;17.87;;;;;;;-0.05;93.54;99993.09;1795007;79;21123;-48
2020/12/29 04:29:30;;;;;;;42.15;20.32;;;;;;;-0.10;93.41;99989.02;1794747;79;21374;-49
2020/12/29 04:32:07;;;;;;;41.75;18.10;;;;;;;-0.14;93.52;99984.86;1794634;79;20959;-48
2020/12/29 04:34:27;;;;;;;44.42;19.98;;;;;;;-0.15;93.69;99978.80;1792078;79;21461;-49
2020/12/29 04:36:55;;;;;;;42.67;20.30;;;;;;;-0.19;93.84;99975.51;1794634;79;21104;-49
2020/12/29 04:39:23;;;;;;;48.25;22.77;;;;;;;-0.18;94.04;100001.05;1794755;79;21576;-49
2020/12/29 04:41:52;;;;;;;41.45;18.07;;;;;;;-0.18;94.15;99976.33;1794717;79;21216;-49
2020/12/29 04:44:20;;;;;;;46.48;20.85;;;;;;;-0.17;94.31;99975.42;1794502;79;21002;-48
2020/12/29 04:46:48;;;;;;;50.65;21.27;;;;;;;-0.18;94.35;99981.09;1792088;78;21113;-48
2020/12/29 04:49:16;;;;;;;43.70;19.95;;;;;;;-0.17;94.42;99984.09;1794760;79;21108;-49
2020/12/29 04:51:43;;;;;;;48.17;21.45;;;;;;;-0.17;94.44;99990.59;1766524;78;21400;-49
2020/12/29 04:54:11;;;;;;;51.37;22.58;;;;;;;-0.17;94.49;99977.58;1766233;79;22237;-48
2020/12/29 04:56:38;;;;;;;47.98;22.10;;;;;;;-0.16;94.58;99992.72;1819716;78;22185;-49
2020/12/29 04:59:06;;;;;;;51.15;21.57;;;;;;;-0.18;94.58;99979.80;1740983;79;21129;-49
2020/12/29 05:01:35;;;;;;;46.85;16.40;;;;;;;-0.17;94.59;99985.39;1820186;78;21123;-49
2020/12/29 05:04:04;;;;;;;56.95;23.80;;;;;;;-0.17;94.70;99966.31;1781254;79;20955;-48
2020/12/29 05:06:31;;;;;;;57.83;21.75;;;;;;;-0.22;94.74;99966.54;1789192;79;21172;-49
2020/12/29 05:08:59;;;;;;;58.55;25.20;;;;;;;-0.22;94.86;99960.47;1757063;79;21030;-47
2020/12/29 05:11:27;;;;;;;68.37;27.70;;;;;;;-0.23;94.89;99931.03;1788952;79;21126;-48
2020/12/29 05:13:55;;;;;;;63.35;25.50;;;;;;;-0.25;94.92;99935.90;1734412;81;21933;-49
2020/12/29 05:16:22;;;;;;;63.87;25.23;;;;;;;-0.27;94.85;99939.88;1805517;79;21149;-49
2020/12/29 05:18:50;;;;;;;68.22;29.65;;;;;;;-0.30;94.78;99971.23;1787523;79;21427;-48
2020/12/29 05:21:18;;;;;;;75.35;30.12;;;;;;;-0.28;94.80;99983.71;1788848;79;21010;-48
2020/12/29 05:23:46;;;;;;;75.03;25.48;;;;;;;-0.25;94.97;99985.32;1784280;80;20966;-49
2020/12/29 05:26:14;;;;;;;74.67;30.45;;;;;;;-0.23;95.10;99979.59;1737238;80;21117;-48
2020/12/29 05:28:42;;;;;;;64.22;25.52;;;;;;;-0.20;95.12;99982.06;1784306;80;21148;-49
2020/12/29 05:31:10;;;;;;;73.22;28.77;;;;;;;-0.16;95.21;99988.82;1737539;80;22902;-49
2020/12/29 05:33:37;;;;;;;79.12;32.23;;;;;;;-0.17;95.21;99991.89;1737428;80;21139;-52
2020/12/29 05:36:05;;;;;;;76.42;28.65;;;;;;;-0.16;95.24;99996.19;1737584;80;21989;-48
2020/12/29 05:38:36;;;;;;;84.42;33.83;;;;;;;-0.16;95.30;99990.98;1784365;80;21113;-48
2020/12/29 05:41:04;;;;;;;68.97;26.52;;;;;;;-0.17;95.31;100003.59;1743357;78;21128;-48
2020/12/29 05:43:32;;;;;;;83.70;30.10;;;;;;;-0.17;95.35;99987.13;1816541;78;21337;-49
2020/12/29 05:46:00;;;;;;;78.75;29.70;;;;;;;-0.20;95.33;99990.73;1816806;78;22130;-49
2020/12/29 05:48:28;;;;;;;65.95;27.73;;;;;;;-0.23;95.44;99983.05;1816895;78;20994;-49
2020/12/29 05:50:56;;;;;;;73.47;27.30;;;;;;;-0.25;95.54;99987.48;1791693;79;21126;-48
2020/12/29 05:53:24;;;;;;;79.50;30.80;;;;;;;-0.25;95.69;100008.73;1774548;79;21148;-48
2020/12/29 05:55:53;;;;;;;66.80;28.80;;;;;;;-0.24;95.74;100007.38;1723600;79;21207;-49
2020/12/29 05:58:20;;;;;;;72.35;29.07;;;;;;;-0.21;95.79;100013.75;1767504;78;21026;-48
2020/12/29 06:00:48;;;;;;;62.08;24.87;;;;;;;-0.22;95.73;100003.39;1765764;78;21114;-48
2020/12/29 06:03:16;;;;;;;67.70;27.00;;;;;;;-0.29;95.61;99998.93;1771900;79;21115;-49
2020/12/29 06:05:43;;;;;;;71.97;26.85;;;;;;;-0.28;95.80;99991.52;1762390;79;21736;-49
2020/12/29 06:08:11;;;;;;;71.07;23.73;;;;;;;-0.25;95.96;99982.28;1766437;79;22163;-49
2020/12/29 06:10:38;;;;;;;66.77;23.42;;;;;;;-0.25;96.06;99982.28;1794322;79;21030;-49
2020/12/29 06:13:07;;;;;;;60.63;22.22;;;;;;;-0.28;96.17;99991.52;1767175;79;22120;-49
2020/12/29 06:15:37;;;;;;;72.47;29.95;;;;;;;-0.32;96.32;99999.06;1788699;79;21288;-49
2020/12/29 06:18:08;;;;;;;68.57;25.23;;;;;;;-0.35;96.52;99992.69;1786690;79;21897;-48
2020/12/29 06:20:47;;;;;;;71.00;28.45;;;;;;;-0.32;96.68;99976.95;1839923;76;22912;-49
2020/12/29 06:23:20;;;;;;;59.08;24.02;;;;;;;-0.37;96.81;99973.23;1820698;77;21165;-50
2020/12/29 06:25:48;;;;;;;76.90;27.77;;;;;;;-0.36;96.89;99961.92;1717167;80;21438;-48
2020/12/29 06:28:18;;;;;;;80.25;26.73;;;;;;;-0.39;96.94;99956.03;1785566;78;21388;-48
2020/12/29 06:30:46;;;;;;;64.50;24.07;;;;;;;-0.42;97.01;99951.79;1785891;78;22589;-48
2020/12/29 06:33:17;;;;;;;69.07;29.42;;;;;;;-0.39;97.21;99952.12;1788797;78;21232;-49
2020/12/29 06:35:45;;;;;;;64.07;22.82;;;;;;;-0.39;97.25;99978.13;1770094;78;21754;-49
2020/12/29 06:38:26;;;;;;;67.40;25.57;;;;;;;-0.40;97.38;99973.84;1766590;79;21695;-49
2020/12/29 06:41:01;;;;;;;62.73;25.25;;;;;;;-0.33;97.61;99964.86;1867024;74;29983;-49
2020/12/29 06:43:32;;;;;;;60.10;24.37;;;;;;;-0.35;97.72;99961.48;1830281;77;21227;-49
2020/12/29 06:46:13;;;;;;;62.50;26.33;;;;;;;-0.35;97.81;99964.91;1827112;77;21473;-48
2020/12/29 06:48:41;;;;;;;72.40;25.30;;;;;;;-0.33;97.89;99961.79;1819265;78;21031;-49
2020/12/29 06:51:10;;;;;;;61.77;23.73;;;;;;;-0.30;97.99;99946.52;1797671;78;21776;-48
2020/12/29 06:53:43;;;;;;;64.12;26.15;;;;;;;-0.32;98.07;99973.88;1816151;78;21054;-49
2020/12/29 06:56:16;;;;;;;59.90;25.60;;;;;;;-0.28;98.11;99975.05;1811527;77;21947;-49
2020/12/29 06:58:44;;;;;;;53.83;22.80;;;;;;;-0.27;98.09;99981.50;1823724;78;21182;-49
2020/12/29 07:01:24;;;;;;;57.55;23.15;;;;;;;-0.24;98.07;99975.30;1793397;78;21180;-48
2020/12/29 07:04:06;;;;;;;51.88;22.85;;;;;;;-0.24;98.04;99972.27;1812670;78;21129;-48
2020/12/29 07:06:36;;;;;;;52.40;22.48;;;;;;;-0.22;98.02;99970.87;1811496;78;21889;-48
2020/12/29 07:09:15;;;;;;;45.80;17.10;;;;;;;-0.22;98.00;99965.23;1803594;78;21792;-48
2020/12/29 07:12:04;;;;;;;51.50;21.20;;;;;;;-0.23;98.01;99966.15;1812618;78;22766;-49
2020/12/29 07:14:33;;;;;;;49.55;18.60;;;;;;;-0.24;98.05;99973.56;1797776;78;21971;-49
2020/12/29 07:17:01;;;;;;;49.03;18.85;;;;;;;-0.21;98.07;99985.58;1787050;78;21467;-49
2020/12/29 07:19:28;;;;;;;45.12;16.73;;;;;;;-0.20;98.12;99976.86;1801433;77;21930;-47
2020/12/29 07:21:57;;;;;;;48.78;20.48;;;;;;;-0.18;98.10;99953.78;1808707;78;20975;-48
2020/12/29 07:24:27;;;;;;;35.10;16.00;;;;;;;-0.16;98.11;99962.80;1785380;78;21202;-49
2020/12/29 07:26:57;;;;;;;47.27;20.48;;;;;;;-0.16;98.12;99957.16;1777407;78;21136;-48
2020/12/29 07:29:24;;;;;;;43.30;17.17;;;;;;;-0.12;98.13;99949.22;1798136;78;21106;-49
2020/12/29 07:31:52;;;;;;;35.95;15.55;;;;;;;-0.11;98.19;99940.50;1826246;78;21621;-48
2020/12/29 07:34:19;;;;;;;37.15;17.80;;;;;;;-0.11;98.19;99947.84;1810461;78;21137;-49
2020/12/29 07:36:48;;;;;;;44.05;19.32;;;;;;;-0.15;98.06;99943.69;1819773;77;21137;-49
2020/12/29 07:39:17;;;;;;;39.15;16.20;;;;;;;-0.13;98.08;99944.45;1830151;77;21002;-48
2020/12/29 07:41:45;;;;;;;40.03;17.23;;;;;;;-0.08;98.17;99946.87;1832069;77;21955;-48
2020/12/29 07:44:13;;;;;;;39.05;16.95;;;;;;;-0.08;98.14;99949.47;1833288;77;20978;-48
2020/12/29 07:46:40;;;;;;;38.65;19.27;;;;;;;-0.08;98.18;99951.60;1797868;77;21516;-48
2020/12/29 07:49:08;;;;;;;43.85;19.92;;;;;;;-0.05;98.27;99950.16;1834427;77;22099;-48
2020/12/29 07:51:48;;;;;;;48.00;19.92;;;;;;;-0.02;98.30;99953.92;1826901;77;21129;-48
2020/12/29 07:54:18;;;;;;;44.13;19.37;;;;;;;0.01;98.30;99962.50;1739999;81;21132;-49
2020/12/29 07:56:46;;;;;;;41.70;17.65;;;;;;;0.03;98.28;99952.88;1731519;82;20979;-49
2020/12/29 07:59:13;;;;;;;49.73;17.48;;;;;;;0.04;98.20;99950.19;1745462;80;20987;-49
2020/12/29 08:01:55;;;;;;;45.65;19.57;;;;;;;0.05;98.20;99947.14;1743304;80;21360;-49
2020/12/29 08:04:24;;;;;;;51.90;22.42;;;;;;;0.05;98.27;99921.12;1746892;80;21141;-49
2020/12/29 08:06:53;;;;;;;41.75;20.17;;;;;;;0.04;98.27;99907.25;1763538;80;21416;-49
2020/12/29 08:09:21;;;;;;;49.27;20.77;;;;;;;0.04;98.30;99898.61;1747213;80;21919;-49
2020/12/29 08:11:49;;;;;;;41.05;18.65;;;;;;;0.05;98.32;99923.25;1738948;82;21161;-48
2020/12/29 08:14:16;;;;;;;39.03;18.32;;;;;;;0.03;98.29;99913.36;1745789;80;21375;-48
2020/12/29 08:16:44;;;;;;;30.40;13.70;;;;;;;0.01;98.21;99908.69;1753492;80;21007;-49
2020/12/29 08:19:12;;;;;;;37.83;16.45;;;;;;;-0.01;98.12;99892.34;1762422;80;21220;-48
2020/12/29 08:21:39;;;;;;;34.43;15.15;;;;;;;-0.02;98.06;99913.59;1780003;79;21613;-47
2020/12/29 08:24:07;;;;;;;34.67;16.40;;;;;;;-0.02;98.05;99917.50;1789835;79;20967;-50
2020/12/29 08:26:36;;;;;;;50.90;16.95;;;;;;;-0.01;98.14;99921.78;1782452;79;21185;-51
2020/12/29 08:29:04;;;;;;;41.15;18.25;;;;;;;0.01;98.21;99903.48;1747027;81;21674;-49
2020/12/29 08:31:32;;;;;;;43.00;18.27;;;;;;;0.05;98.25;99905.03;1721785;80;21168;-47
2020/12/29 08:33:59;;;;;;;40.38;17.05;;;;;;;0.08;98.28;99896.25;1755524;80;20983;-49
2020/12/29 08:36:28;;;;;;;36.05;15.63;;;;;;;0.12;98.28;99910.34;1763757;80;22087;-48
2020/12/29 08:39:21;;;;;;;36.80;16.23;;;;;;;0.16;98.25;99899.34;1750308;80;21784;-49
2020/12/29 08:41:57;;;;;;;34.43;15.75;;;;;;;0.16;98.20;99885.03;1740084;80;21156;-49
2020/12/29 08:44:26;;;;;;;37.80;15.48;;;;;;;0.21;98.29;99888.70;1754724;80;21084;-48
2020/12/29 08:46:54;;;;;;;37.85;15.35;;;;;;;0.25;98.31;99878.53;1749524;80;20979;-48
2020/12/29 08:49:29;;;;;;;37.38;15.63;;;;;;;0.28;98.26;99877.08;1740529;80;21152;-49
2020/12/29 08:51:57;;;;;;;42.45;17.75;;;;;;;0.26;98.12;99873.71;1745115;80;21150;-49
2020/12/29 08:54:25;;;;;;;34.85;16.10;;;;;;;0.26;98.08;99873.71;1738122;80;21002;-48
2020/12/29 08:57:00;;;;;;;33.15;15.58;;;;;;;0.31;98.10;99872.20;1737901;80;21164;-49
2020/12/29 08:59:37;;;;;;;31.37;14.78;;;;;;;0.34;98.10;99857.27;1739813;80;21139;-48
2020/12/29 09:02:05;;;;;;;31.12;14.40;;;;;;;0.31;97.91;99845.70;1746562;80;21147;-49
2020/12/29 09:07:16;;;;;;;34.80;15.08;;;;;;;0.31;97.73;99830.08;1817597;77;22962;-49
2020/12/29 09:10:04;;;;;;;29.18;12.93;;;;;;;0.28;97.81;99814.61;1780563;78;22607;-49
2020/12/29 09:12:33;;;;;;;33.75;15.10;;;;;;;0.29;97.78;99826.27;1771068;79;21482;-50
2020/12/29 09:15:07;;;;;;;32.63;16.02;;;;;;;0.28;97.71;99805.49;1773534;78;22555;-49
2020/12/29 09:17:42;;;;;;;28.00;12.60;;;;;;;0.27;97.68;99802.06;1801042;78;21022;-49
2020/12/29 09:20:23;;;;;;;31.45;14.07;;;;;;;0.28;97.69;99810.70;1803380;78;21015;-49
2020/12/29 09:23:05;;;;;;;28.47;14.13;;;;;;;0.27;97.71;99792.09;1805109;78;21035;-49
2020/12/29 09:25:43;;;;;;;30.92;16.62;;;;;;;0.26;97.88;99782.59;1800651;78;23221;-48
2020/12/29 09:28:21;;;;;;;34.23;17.15;;;;;;;0.29;97.99;99800.23;1780032;78;21401;-49
2020/12/29 09:31:00;;;;;;;29.77;14.90;;;;;;;0.31;98.00;99806.64;1783272;78;21059;-49
2020/12/29 09:33:29;;;;;;;36.25;17.32;;;;;;;0.35;98.06;99804.27;1743465;80;21568;-50
2020/12/29 09:38:34;;;;;;;37.65;19.37;;;;;;;0.41;98.03;99805.27;1868644;75;22713;-48
2020/12/29 09:41:03;;;;;;;26.87;14.28;;;;;;;0.39;98.00;99795.40;1831187;77;20974;-49
2020/12/29 09:43:32;;;;;;;25.82;12.23;;;;;;;0.40;98.05;99789.27;1824662;77;21186;-49
2020/12/29 09:46:00;;;;;;;29.50;14.28;;;;;;;0.40;97.90;99779.33;1797524;78;21003;-48
2020/12/29 09:48:27;;;;;;;30.70;14.73;;;;;;;0.38;97.82;99783.30;1779738;78;21314;-49
2020/12/29 09:50:55;;;;;;;26.75;13.55;;;;;;;0.40;97.87;99766.31;1788644;79;21511;-48
2020/12/29 09:53:25;;;;;;;25.60;13.18;;;;;;;0.41;97.85;99745.39;1773979;79;22067;-49
2020/12/29 09:55:54;;;;;;;26.77;13.62;;;;;;;0.46;97.93;99754.73;1795185;79;21204;-49
2020/12/29 09:58:22;;;;;;;23.30;12.60;;;;;;;0.46;97.93;99743.02;1788808;79;21156;-48
2020/12/29 10:00:50;;;;;;;26.27;13.53;;;;;;;0.47;97.99;99752.06;1776884;79;21595;-49
2020/12/29 10:03:19;;;;;;;22.55;12.13;;;;;;;0.50;97.98;99757.56;1775711;79;21145;-49
2020/12/29 10:05:48;;;;;;;23.12;11.08;;;;;;;0.51;97.99;99750.99;1779748;79;21611;-50
2020/12/29 10:08:16;;;;;;;24.98;13.15;;;;;;;0.55;97.95;99742.55;1779196;80;21949;-49
2020/12/29 10:10:44;;;;;;;25.97;12.70;;;;;;;0.58;97.96;99746.30;1780051;80;20991;-50
2020/12/29 10:13:11;;;;;;;24.47;12.20;;;;;;;0.61;97.85;99729.21;1807480;78;21121;-50
2020/12/29 10:15:39;;;;;;;26.62;13.28;;;;;;;0.63;97.76;99721.30;1747916;81;22042;-50
2020/12/29 10:18:06;;;;;;;24.02;12.28;;;;;;;0.65;97.72;99721.63;1751286;80;21173;-50
2020/12/29 10:20:34;;;;;;;22.17;12.73;;;;;;;0.67;97.66;99723.69;1792621;78;22171;-49
2020/12/29 10:23:02;;;;;;;24.15;12.58;;;;;;;0.71;97.68;99722.61;1792487;78;21585;-50
2020/12/29 10:25:31;;;;;;;27.98;13.98;;;;;;;0.75;97.63;99725.88;1796575;78;20987;-50
2020/12/29 10:27:58;;;;;;;25.65;13.10;;;;;;;0.78;97.61;99738.75;1807489;78;21106;-50
2020/12/29 10:30:26;;;;;;;27.15;13.10;;;;;;;0.80;97.54;99729.09;1794461;78;21365;-50
2020/12/29 10:32:53;;;;;;;21.25;10.78;;;;;;;0.81;97.40;99741.19;1791345;78;22399;-50
2020/12/29 10:35:22;;;;;;;27.58;13.38;;;;;;;0.83;97.27;99744.56;1774618;78;20991;-48
2020/12/29 10:37:50;;;;;;;22.10;12.33;;;;;;;0.81;97.07;99740.37;1771329;79;21007;-49
2020/12/29 10:40:18;;;;;;;28.67;14.63;;;;;;;0.79;96.96;99726.58;1771062;80;22146;-49
2020/12/29 10:42:46;;;;;;;26.07;15.40;;;;;;;0.76;96.98;99741.89;1765770;80;20971;-49
2020/12/29 10:45:14;;;;;;;26.87;13.38;;;;;;;0.77;97.01;99737.54;1762985;80;21180;-49
2020/12/29 10:47:42;;;;;;;25.43;13.83;;;;;;;0.75;97.03;99738.91;1762704;80;20976;-49
2020/12/29 10:50:09;;;;;;;25.97;14.07;;;;;;;0.78;97.17;99740.52;1774810;80;21141;-49
2020/12/29 10:52:37;;;;;;;25.60;13.58;;;;;;;0.80;97.13;99730.39;1768952;80;21726;-49
2020/12/29 10:55:05;;;;;;;24.98;13.65;;;;;;;0.80;96.98;99731.69;1775733;79;20987;-49
2020/12/29 10:57:34;;;;;;;26.62;13.13;;;;;;;0.80;96.91;99719.14;1774826;79;21185;-49
2020/12/29 11:00:02;;;;;;;20.95;11.28;;;;;;;0.76;96.93;99691.09;1779443;79;21137;-49
2020/12/29 11:02:30;;;;;;;30.27;15.68;;;;;;;0.74;96.98;99694.23;1789321;79;21613;-49
2020/12/29 11:04:58;;;;;;;23.83;12.93;;;;;;;0.73;97.04;99688.64;1779321;79;21187;-49
2020/12/29 11:07:26;;;;;;;27.17;12.07;;;;;;;0.72;97.17;99693.48;1777598;78;21649;-49
2020/12/29 11:09:56;;;;;;;24.92;12.30;;;;;;;0.72;97.29;99683.91;1778235;79;21181;-49
2020/12/29 11:12:24;;;;;;;24.77;13.13;;;;;;;0.72;97.35;99690.88;1776154;78;22102;-49
2020/12/29 11:14:51;;;;;;;28.00;12.68;;;;;;;0.73;97.46;99688.20;1789584;79;20991;-49
2020/12/29 11:17:22;;;;;;;21.25;11.85;;;;;;;0.72;97.52;99694.34;1741876;80;21153;-49
2020/12/29 11:19:51;;;;;;;30.90;11.25;;;;;;;0.71;97.59;99660.09;1796282;78;20979;-48
2020/12/29 11:22:19;;;;;;;25.12;12.53;;;;;;;0.72;97.67;99672.19;1796978;78;21195;-49
2020/12/29 11:24:46;;;;;;;24.00;12.40;;;;;;;0.75;97.77;99676.86;1804873;78;21935;-49
2020/12/29 11:27:14;;;;;;;22.93;11.25;;;;;;;0.76;97.77;99667.64;1778843;78;20980;-49
2020/12/29 11:29:41;;;;;;;30.45;14.60;;;;;;;0.76;97.77;99672.03;1807009;78;21606;-49
2020/12/29 11:32:09;;;;;;;26.95;13.78;;;;;;;0.78;97.83;99674.09;1786417;78;22138;-49
2020/12/29 11:34:36;;;;;;;23.45;12.68;;;;;;;0.81;97.89;99660.42;1809472;78;22003;-50
2020/12/29 11:37:04;;;;;;;28.52;14.30;;;;;;;0.85;97.91;99672.84;1786698;79;21012;-48
2020/12/29 11:39:32;;;;;;;27.87;14.45;;;;;;;0.88;97.90;99671.38;1779616;79;21121;-49